Miyazaki Airport


Codes: RJFM/KMI
Name: Miyazaki Airport
City: Miyazaki
Country: Japan
Elevation: 20 ft.
Wikipedia:

Photos at Miyazaki Airport


   Photos courtesy of SpottingLog. You can add your own sightings and photos by signing up for a free trial today.



JA803X, 01-Dec-2013
© Tomo-Papa

JA846C, 01-Dec-2013
© Tomo-Papa


Weather at Miyazaki Airport


Time (UTC)DescriptionTempratureWindCloud coverageVisibilityPressureHumidity
25-Jun-2024 15:00Light Rain24°C2 mph, W100%10000m1014hPa93%
25-Jun-2024 18:00Light Rain23°C2 mph, W98%10000m1014hPa93%
25-Jun-2024 21:00Light Rain22°C2 mph, NW77%10000m1016hPa93%
26-Jun-2024 00:00Light Rain24°C2 mph, N78%10000m1016hPa88%
26-Jun-2024 03:00Light Rain26°C4 mph, NE100%10000m1016hPa85%
26-Jun-2024 06:00Moderate Rain24°C4 mph, NE98%10000m1016hPa94%
26-Jun-2024 09:00Moderate Rain23°C2 mph, NE99%8938m1016hPa96%
26-Jun-2024 12:00Light Rain23°C2 mph, NW100%10000m1017hPa95%
26-Jun-2024 15:00Overcast Clouds23°C0 mph, S100%10000m1016hPa94%
26-Jun-2024 18:00Light Rain23°C2 mph, W100%10000m1016hPa95%
26-Jun-2024 21:00Light Rain23°C2 mph, NW100%10000m1017hPa95%
27-Jun-2024 00:00Light Rain23°C2 mph, N100%10000m1017hPa95%
27-Jun-2024 03:00Moderate Rain23°C2 mph, N100%10000m1017hPa97%
27-Jun-2024 06:00Light Rain23°C0 mph, SE100%10000m1016hPa96%
27-Jun-2024 09:00Light Rain23°C0 mph, SE100%10000m1016hPa96%
27-Jun-2024 12:00Light Rain23°C2 mph, SW100%10000m1016hPa95%
27-Jun-2024 15:00Light Rain23°C2 mph, SW100%10000m1015hPa94%
27-Jun-2024 18:00Light Rain23°C2 mph, SW100%10000m1014hPa94%
27-Jun-2024 21:00Light Rain23°C4 mph, SW100%10000m1013hPa92%
28-Jun-2024 00:00Overcast Clouds25°C4 mph, SW100%10000m1013hPa87%
28-Jun-2024 03:00Overcast Clouds28°C9 mph, SW100%10000m1012hPa68%
28-Jun-2024 06:00Overcast Clouds28°C9 mph, SW100%10000m1011hPa71%
28-Jun-2024 09:00Overcast Clouds25°C7 mph, SW100%10000m1011hPa85%
28-Jun-2024 12:00Overcast Clouds24°C7 mph, SW100%10000m1012hPa89%
28-Jun-2024 15:00Overcast Clouds24°C7 mph, SW100%10000m1011hPa90%
28-Jun-2024 18:00Overcast Clouds24°C7 mph, SW100%10000m1011hPa89%
28-Jun-2024 21:00Light Rain24°C7 mph, SW100%10000m1011hPa88%
29-Jun-2024 00:00Overcast Clouds25°C7 mph, SW96%10000m1012hPa83%
29-Jun-2024 03:00Overcast Clouds28°C7 mph, SW85%10000m1011hPa73%
29-Jun-2024 06:00Light Rain29°C9 mph, SW92%10000m1011hPa65%
29-Jun-2024 09:00Light Rain26°C7 mph, SW100%10000m1011hPa82%
29-Jun-2024 12:00Overcast Clouds25°C7 mph, SW100%10000m1012hPa87%
29-Jun-2024 15:00Overcast Clouds24°C4 mph, SW100%10000m1012hPa88%
29-Jun-2024 18:00Overcast Clouds24°C4 mph, SW100%10000m1011hPa89%
29-Jun-2024 21:00Overcast Clouds24°C4 mph, SW100%10000m1011hPa85%
30-Jun-2024 00:00Overcast Clouds25°C2 mph, SW100%10000m1011hPa84%
30-Jun-2024 03:00Overcast Clouds29°C7 mph, S100%10000m1010hPa70%
30-Jun-2024 06:00Light Rain29°C11 mph, S100%10000m1009hPa69%
30-Jun-2024 09:00Light Rain28°C9 mph, S100%10000m1009hPa81%
30-Jun-2024 12:00Light Rain25°C4 mph, SW100%10000m1010hPa89%